Time;durP1;ratioP1;P1;durP2;ratioP2;P2;SDS_P1;SDS_P2;PMS_P1;PMS_P2;Temp;Humidity;BMP_temperature;BMP_pressure;BME280_temperature;BME280_humidity;BME280_pressure;Samples;Min_cycle;Max_cycle;Signal;HPM_P1;HPM_P2
2022/08/01 00:00:49;;;;;;;0.57;0.38;;;24.80;64.40;;;;;;6323427;27;20039;-41
2022/08/01 00:03:51;;;;;;;0.50;0.45;;;24.80;64.40;;;;;;6326920;27;20058;-40
2022/08/01 00:06:52;;;;;;;0.40;0.30;;;24.70;64.40;;;;;;6327943;27;20046;-39
2022/08/01 00:09:54;;;;;;;0.30;0.30;;;24.70;64.40;;;;;;6320415;27;20055;-41
2022/08/01 00:12:56;;;;;;;0.40;0.40;;;24.70;64.50;;;;;;6321084;27;20548;-41
2022/08/01 00:15:58;;;;;;;0.45;0.30;;;24.70;64.50;;;;;;6320801;27;20050;-39
2022/08/01 00:18:59;;;;;;;0.30;0.30;;;24.70;64.50;;;;;;6323198;27;20066;-40
2022/08/01 00:22:01;;;;;;;0.30;0.20;;;24.90;64.70;;;;;;6324706;27;20272;-41
2022/08/01 00:25:03;;;;;;;0.43;0.40;;;24.80;64.60;;;;;;6328217;27;20122;-41
2022/08/01 00:28:08;;;;;;;0.60;0.30;;;24.70;64.60;;;;;;6307788;27;20049;-40
2022/08/01 00:31:09;;;;;;;0.40;0.32;;;24.70;64.60;;;;;;6325564;27;20244;-41
2022/08/01 00:34:11;;;;;;;0.30;0.30;;;24.60;64.50;;;;;;6327698;27;20039;-40
2022/08/01 00:37:13;;;;;;;0.47;0.40;;;24.70;64.60;;;;;;6325433;27;20147;-38
2022/08/01 00:40:17;;;;;;;0.40;0.30;;;24.60;64.60;;;;;;6330762;27;20042;-41
2022/08/01 00:43:19;;;;;;;0.40;0.30;;;24.70;64.70;;;;;;6310722;27;20039;-39
2022/08/01 00:46:21;;;;;;;0.30;0.25;;;24.70;64.70;;;;;;6332651;27;20211;-39
2022/08/01 00:49:22;;;;;;;0.45;0.28;;;24.60;64.60;;;;;;6324346;27;20427;-39
2022/08/01 00:52:24;;;;;;;0.20;0.20;;;24.60;64.70;;;;;;6319013;27;20471;-41
2022/08/01 00:55:26;;;;;;;0.40;0.40;;;24.70;64.70;;;;;;6317695;27;20569;-41
2022/08/01 00:58:30;;;;;;;0.30;0.25;;;24.60;64.60;;;;;;6319233;27;20050;-39
2022/08/01 01:01:32;;;;;;;0.38;0.20;;;24.70;64.70;;;;;;6318525;27;20489;-40
2022/08/01 01:04:41;;;;;;;0.47;0.30;;;24.80;64.70;;;;;;6322208;27;20459;-40
2022/08/01 01:07:50;;;;;;;0.30;0.30;;;24.60;64.50;;;;;;6322847;27;20339;-40
2022/08/01 01:10:57;;;;;;;0.52;0.30;;;24.70;64.60;;;;;;6302183;27;20057;-40
2022/08/01 01:14:04;;;;;;;0.40;0.30;;;24.70;64.50;;;;;;6320503;27;20423;-40
2022/08/01 01:17:07;;;;;;;0.63;0.30;;;24.70;64.50;;;;;;6319618;27;20050;-39
2022/08/01 01:20:13;;;;;;;0.90;0.35;;;24.70;64.50;;;;;;6315446;27;20127;-41
2022/08/01 01:23:38;;;;;;;0.30;0.30;;;24.60;64.40;;;;;;6303898;27;20325;-38
2022/08/01 01:26:45;;;;;;;0.35;0.35;;;24.70;64.50;;;;;;6322684;27;20674;-39
2022/08/01 01:29:52;;;;;;;0.85;0.40;;;24.70;64.40;;;;;;6320663;27;20154;-40
2022/08/01 01:33:04;;;;;;;0.77;0.47;;;24.70;64.40;;;;;;6318896;27;20509;-40
2022/08/01 01:36:10;;;;;;;0.40;0.35;;;24.70;64.30;;;;;;6320431;27;20043;-38
2022/08/01 01:39:14;;;;;;;0.43;0.35;;;24.60;64.30;;;;;;6299316;27;20255;-42
2022/08/01 01:42:20;;;;;;;0.30;0.27;;;24.70;64.30;;;;;;6321604;27;20428;-41
2022/08/01 01:45:25;;;;;;;0.47;0.40;;;24.70;64.30;;;;;;6302253;27;20108;-40
2022/08/01 01:48:27;;;;;;;0.50;0.40;;;24.90;64.30;;;;;;6317352;27;20560;-40
2022/08/01 01:51:29;;;;;;;0.75;0.30;;;24.70;64.10;;;;;;6318765;27;20289;-39
2022/08/01 01:54:39;;;;;;;0.30;0.30;;;24.60;64.10;;;;;;6298737;27;20565;-41
2022/08/01 01:57:42;;;;;;;0.30;0.30;;;24.70;64.00;;;;;;6318308;27;20456;-39
2022/08/01 02:00:46;;;;;;;0.40;0.32;;;24.70;64.00;;;;;;6318983;27;20058;-40
2022/08/01 02:03:49;;;;;;;0.55;0.43;;;24.70;64.00;;;;;;6320495;27;20157;-39
2022/08/01 02:06:53;;;;;;;0.32;0.32;;;24.70;63.90;;;;;;6319503;27;20474;-39
2022/08/01 02:09:55;;;;;;;0.28;0.28;;;24.80;63.90;;;;;;6317285;27;20119;-40
2022/08/01 02:12:59;;;;;;;0.30;0.30;;;24.80;63.80;;;;;;6320313;27;20196;-39
2022/08/01 02:16:04;;;;;;;0.35;0.30;;;24.70;63.70;;;;;;6316701;27;20460;-39
2022/08/01 02:19:06;;;;;;;0.40;0.30;;;24.80;63.80;;;;;;6316947;27;20153;-39
2022/08/01 02:22:11;;;;;;;0.30;0.22;;;24.70;63.60;;;;;;6298527;27;20337;-40
2022/08/01 02:25:22;;;;;;;0.47;0.35;;;24.90;63.70;;;;;;6290873;27;20065;-40
2022/08/01 02:28:28;;;;;;;0.30;0.30;;;24.70;63.60;;;;;;6318597;27;20792;-39
2022/08/01 02:31:35;;;;;;;0.30;0.30;;;24.90;63.60;;;;;;6301655;27;20178;-41
2022/08/01 02:34:36;;;;;;;0.30;0.30;;;24.80;63.50;;;;;;6317928;27;20466;-39
2022/08/01 02:37:40;;;;;;;0.30;0.30;;;24.80;63.40;;;;;;6321247;27;20560;-39
2022/08/01 02:40:50;;;;;;;0.47;0.35;;;24.80;63.50;;;;;;6319973;27;20284;-41
2022/08/01 02:43:57;;;;;;;0.60;0.50;;;24.80;63.30;;;;;;6299771;27;20198;-39
2022/08/01 02:47:02;;;;;;;0.30;0.20;;;24.80;63.20;;;;;;6300216;27;20232;-39
2022/08/01 02:50:07;;;;;;;0.40;0.40;;;24.80;63.20;;;;;;6300917;27;20631;-41
2022/08/01 02:53:12;;;;;;;0.50;0.40;;;24.90;63.30;;;;;;6316445;27;20067;-40
2022/08/01 02:56:18;;;;;;;0.32;0.30;;;24.90;63.30;;;;;;6299423;27;20299;-40
2022/08/01 02:59:25;;;;;;;0.50;0.30;;;24.80;63.10;;;;;;6321254;27;20861;-40
2022/08/01 03:02:29;;;;;;;0.30;0.30;;;24.80;63.10;;;;;;6302823;27;20429;-39
2022/08/01 03:05:32;;;;;;;0.40;0.40;;;24.90;63.10;;;;;;6319199;27;20438;-39
2022/08/01 03:08:36;;;;;;;0.30;0.30;;;24.90;63.00;;;;;;6319923;27;20071;-38
2022/08/01 03:11:41;;;;;;;0.40;0.30;;;24.80;62.90;;;;;;6303496;27;20578;-39
2022/08/01 03:14:46;;;;;;;0.60;0.30;;;24.80;62.90;;;;;;6302908;27;20091;-39
2022/08/01 03:17:51;;;;;;;0.85;0.30;;;24.90;62.90;;;;;;6321530;27;20271;-40
2022/08/01 03:20:55;;;;;;;0.95;0.40;;;24.90;62.90;;;;;;6320660;27;20356;-40
2022/08/01 03:23:59;;;;;;;2.60;0.38;;;24.90;63.00;;;;;;6320020;27;20306;-40
2022/08/01 03:27:02;;;;;;;2.40;0.43;;;24.90;63.00;;;;;;6303801;27;20094;-41
2022/08/01 03:30:06;;;;;;;0.45;0.30;;;24.70;63.00;;;;;;6323413;27;20321;-39
2022/08/01 03:33:08;;;;;;;0.95;0.30;;;24.80;63.10;;;;;;6302170;27;20408;-40
2022/08/01 03:36:18;;;;;;;1.23;0.38;;;24.90;63.10;;;;;;6321972;27;20051;-40
2022/08/01 03:39:25;;;;;;;0.60;0.25;;;24.80;62.90;;;;;;6325745;27;20043;-39
2022/08/01 03:42:33;;;;;;;0.28;0.20;;;24.90;62.90;;;;;;6309233;27;20153;-38
2022/08/01 03:45:38;;;;;;;1.85;0.52;;;24.70;62.70;;;;;;6324843;27;20721;-39
2022/08/01 03:48:46;;;;;;;0.57;0.20;;;24.90;62.70;;;;;;6319635;27;20458;-41
2022/08/01 03:51:51;;;;;;;0.68;0.30;;;24.90;62.70;;;;;;6322381;27;20039;-39
2022/08/01 03:54:55;;;;;;;0.55;0.22;;;25.00;62.60;;;;;;6304978;27;20047;-38
2022/08/01 03:57:58;;;;;;;0.55;0.30;;;24.90;62.50;;;;;;6324461;27;20058;-40
2022/08/01 04:01:00;;;;;;;0.40;0.25;;;24.90;62.30;;;;;;6323298;27;20043;-40
2022/08/01 04:04:04;;;;;;;0.63;0.30;;;24.90;62.90;;;;;;6323622;27;20567;-40
2022/08/01 04:07:21;;;;;;;0.30;0.30;;;24.90;62.20;;;;;;6323470;27;20146;-38
2022/08/01 04:10:23;;;;;;;0.20;0.20;;;25.00;62.10;;;;;;6323510;27;20438;-42
2022/08/01 04:13:25;;;;;;;0.30;0.20;;;24.90;62.00;;;;;;6302530;27;20061;-40
2022/08/01 04:16:38;;;;;;;0.35;0.20;;;24.80;61.90;;;;;;6319348;27;20292;-38
2022/08/01 04:19:40;;;;;;;0.10;0.10;;;24.90;61.80;;;;;;6315154;27;20566;-38
2022/08/01 04:22:42;;;;;;;0.38;0.20;;;24.90;61.70;;;;;;6298307;27;20130;-41
2022/08/01 04:25:46;;;;;;;0.20;0.20;;;24.90;61.60;;;;;;6279932;27;20338;-38
2022/08/01 04:28:50;;;;;;;0.20;0.13;;;24.70;61.40;;;;;;6307278;27;20450;-39
2022/08/01 04:31:54;;;;;;;0.25;0.22;;;25.00;61.50;;;;;;6312359;27;20075;-42
2022/08/01 04:34:59;;;;;;;0.20;0.20;;;25.00;61.40;;;;;;6315719;27;20307;-38
2022/08/01 04:38:02;;;;;;;0.38;0.20;;;24.80;61.20;;;;;;6320119;27;21027;-38
2022/08/01 04:41:06;;;;;;;0.25;0.20;;;24.70;61.30;;;;;;6314888;27;20218;-40
2022/08/01 04:44:11;;;;;;;0.30;0.20;;;25.00;61.20;;;;;;6316949;27;20379;-41
2022/08/01 04:47:13;;;;;;;0.10;0.10;;;24.80;61.00;;;;;;6327070;27;20153;-38
2022/08/01 04:50:15;;;;;;;0.20;0.20;;;24.90;61.00;;;;;;6328525;27;20074;-42
2022/08/01 04:53:18;;;;;;;0.25;0.13;;;24.90;60.90;;;;;;6328441;27;20549;-38
2022/08/01 04:56:20;;;;;;;0.20;0.10;;;24.80;60.80;;;;;;6327138;27;21026;-41
2022/08/01 05:02:42;;;;;;;0.22;0.20;;;24.80;61.30;;;;;;6309598;27;21037;-40
2022/08/01 05:05:44;;;;;;;0.10;0.10;;;24.90;60.70;;;;;;6328720;27;20041;-39
2022/08/01 05:08:45;;;;;;;0.30;0.10;;;24.80;60.50;;;;;;6326421;27;20050;-39
2022/08/01 05:11:47;;;;;;;0.20;0.20;;;24.90;60.60;;;;;;6326039;27;20873;-38
2022/08/01 05:14:48;;;;;;;0.20;0.13;;;24.90;60.60;;;;;;6328705;27;20147;-38
2022/08/01 05:17:53;;;;;;;0.20;0.00;;;24.90;60.50;;;;;;6329566;27;20978;-41
2022/08/01 05:20:55;;;;;;;0.30;0.10;;;24.90;60.50;;;;;;6324010;27;20078;-39
2022/08/01 05:23:57;;;;;;;0.10;0.10;;;24.80;60.30;;;;;;6324496;27;20662;-39
2022/08/01 05:26:59;;;;;;;0.05;0.05;;;24.90;60.30;;;;;;6327104;27;20034;-39
2022/08/01 05:30:01;;;;;;;0.10;0.10;;;24.80;60.20;;;;;;6309948;27;20030;-41
2022/08/01 05:33:03;;;;;;;0.15;0.15;;;24.80;60.10;;;;;;6327156;27;20031;-39
2022/08/01 05:36:05;;;;;;;0.10;0.08;;;24.90;60.20;;;;;;6325634;27;20084;-40
2022/08/01 05:39:07;;;;;;;0.85;0.20;;;24.80;60.00;;;;;;6323848;27;20317;-38
2022/08/01 05:42:09;;;;;;;0.75;0.10;;;24.90;60.00;;;;;;6324814;27;20047;-39
2022/08/01 05:45:10;;;;;;;0.13;0.10;;;24.80;59.90;;;;;;6322554;27;20053;-40
2022/08/01 05:48:12;;;;;;;0.20;0.10;;;24.90;59.90;;;;;;6323138;27;20085;-40
2022/08/01 05:51:14;;;;;;;0.10;0.10;;;24.70;59.80;;;;;;6316309;27;20150;-38
2022/08/01 05:54:15;;;;;;;0.10;0.10;;;24.80;59.80;;;;;;6320733;27;21003;-39
2022/08/01 05:57:17;;;;;;;0.30;0.10;;;24.90;59.80;;;;;;6314391;27;20128;-41
2022/08/01 06:00:19;;;;;;;0.10;0.10;;;24.80;59.70;;;;;;6302123;27;20209;-40
2022/08/01 06:03:21;;;;;;;0.10;0.10;;;24.80;59.70;;;;;;6305718;27;20810;-41
2022/08/01 06:06:23;;;;;;;0.13;0.10;;;24.70;59.60;;;;;;6306692;27;20141;-41
2022/08/01 06:09:27;;;;;;;0.10;0.10;;;24.80;59.60;;;;;;6306338;27;20147;-40
2022/08/01 06:12:28;;;;;;;0.10;0.10;;;24.70;59.60;;;;;;6298831;27;20038;-41
2022/08/01 06:15:36;;;;;;;0.10;0.10;;;24.90;59.60;;;;;;6306677;27;20111;-40
2022/08/01 06:18:38;;;;;;;0.10;0.10;;;24.70;59.50;;;;;;6316586;27;21087;-40
2022/08/01 06:21:40;;;;;;;0.20;0.10;;;24.90;59.60;;;;;;6303078;27;20165;-39
2022/08/01 06:24:41;;;;;;;0.10;0.10;;;24.80;59.50;;;;;;6307628;27;20041;-38
2022/08/01 06:27:43;;;;;;;0.10;0.10;;;24.90;59.50;;;;;;6307831;27;20146;-41
2022/08/01 06:30:45;;;;;;;0.57;0.10;;;24.80;59.50;;;;;;6304393;27;20038;-39
2022/08/01 06:33:46;;;;;;;0.20;0.20;;;24.80;59.50;;;;;;6308120;27;20050;-41
2022/08/01 06:36:48;;;;;;;0.20;0.20;;;24.90;59.60;;;;;;6298072;27;20136;-39
2022/08/01 06:39:50;;;;;;;0.43;0.17;;;24.80;59.50;;;;;;6301945;27;20181;-40
2022/08/01 06:42:52;;;;;;;0.10;0.10;;;24.80;59.50;;;;;;6301252;27;21238;-40
2022/08/01 06:45:53;;;;;;;0.10;0.10;;;24.70;59.50;;;;;;6275640;27;20053;-39
2022/08/01 06:48:55;;;;;;;1.17;0.30;;;24.90;59.50;;;;;;6268896;27;20049;-38
2022/08/01 06:51:57;;;;;;;1.50;0.10;;;24.80;60.10;;;;;;6259060;27;20043;-41
2022/08/01 06:54:59;;;;;;;0.20;0.10;;;24.90;59.60;;;;;;6257499;27;20161;-41
2022/08/01 06:58:00;;;;;;;0.10;0.10;;;24.90;59.50;;;;;;6271114;27;20047;-40
2022/08/01 07:01:05;;;;;;;0.47;0.10;;;24.80;59.40;;;;;;6233141;27;20117;-39
2022/08/01 07:04:07;;;;;;;0.47;0.15;;;24.90;59.40;;;;;;6229141;27;20194;-43
2022/08/01 07:07:09;;;;;;;0.10;0.10;;;24.90;59.40;;;;;;6244862;27;20049;-39
2022/08/01 07:10:11;;;;;;;0.20;0.20;;;24.80;59.30;;;;;;6243471;27;20046;-41
2022/08/01 07:13:14;;;;;;;0.90;0.28;;;25.10;59.50;;;;;;6236004;27;20044;-42
2022/08/01 07:16:16;;;;;;;0.30;0.10;;;24.90;59.50;;;;;;6241706;27;20134;-43
2022/08/01 07:19:21;;;;;;;0.10;0.10;;;24.80;59.50;;;;;;6242312;27;20102;-41
2022/08/01 07:22:23;;;;;;;0.38;0.20;;;24.90;59.50;;;;;;6252493;27;20046;-44
2022/08/01 07:25:25;;;;;;;0.75;0.10;;;25.00;59.60;;;;;;6260398;27;20050;-44
2022/08/01 07:28:27;;;;;;;0.30;0.20;;;24.90;59.50;;;;;;6268834;27;20062;-40
2022/08/01 07:31:29;;;;;;;0.10;0.10;;;25.00;59.60;;;;;;6238097;27;20046;-43
2022/08/01 07:34:33;;;;;;;0.20;0.20;;;24.90;59.50;;;;;;6231620;27;21405;-41
2022/08/01 07:37:35;;;;;;;0.50;0.20;;;25.10;59.60;;;;;;6233289;27;20049;-42
2022/08/01 07:40:49;;;;;;;0.90;0.20;;;25.00;59.50;;;;;;6251090;27;20161;-42
2022/08/01 07:43:50;;;;;;;0.20;0.10;;;25.10;59.60;;;;;;6250353;27;20055;-41
2022/08/01 07:47:00;;;;;;;0.15;0.15;;;25.10;59.50;;;;;;6245505;27;20047;-42
2022/08/01 07:50:03;;;;;;;0.10;0.10;;;25.10;59.50;;;;;;6265774;27;20093;-42
2022/08/01 07:53:05;;;;;;;0.10;0.10;;;25.10;59.50;;;;;;6242449;27;20059;-42
2022/08/01 07:56:07;;;;;;;0.20;0.10;;;25.10;59.40;;;;;;6206479;27;21079;-42
2022/08/01 07:59:08;;;;;;;1.00;0.10;;;25.00;59.20;;;;;;6243244;27;20042;-42
2022/08/01 08:02:10;;;;;;;0.17;0.10;;;25.10;59.30;;;;;;6250806;27;21260;-39
2022/08/01 08:05:12;;;;;;;0.10;0.10;;;25.10;59.20;;;;;;6224101;27;20044;-44
2022/08/01 08:08:18;;;;;;;0.03;0.03;;;25.20;59.20;;;;;;6251129;27;20244;-39
2022/08/01 08:11:23;;;;;;;0.10;0.00;;;25.20;59.20;;;;;;6253841;27;20078;-40
2022/08/01 08:14:24;;;;;;;1.02;0.15;;;25.20;59.10;;;;;;6257314;27;20166;-39
2022/08/01 08:17:34;;;;;;;1.55;0.20;;;25.10;59.00;;;;;;6267428;27;22492;-43
2022/08/01 08:20:37;;;;;;;0.45;0.10;;;25.30;59.10;;;;;;6258177;27;20051;-39
2022/08/01 08:26:55;;;;;;;0.40;0.10;;;25.20;59.00;;;;;;6253714;27;20043;-40
2022/08/01 08:29:57;;;;;;;0.20;0.10;;;25.30;59.00;;;;;;6242379;27;22498;-41
2022/08/01 08:32:58;;;;;;;0.10;0.10;;;25.30;59.00;;;;;;6241455;27;21615;-45
2022/08/01 08:36:00;;;;;;;1.60;0.20;;;25.30;58.90;;;;;;6222068;27;20057;-42
2022/08/01 08:39:03;;;;;;;0.08;0.08;;;25.30;58.90;;;;;;6256201;27;20997;-42
2022/08/01 08:42:07;;;;;;;0.40;0.20;;;25.30;58.90;;;;;;6233397;27;20045;-43
2022/08/01 08:45:12;;;;;;;0.10;0.10;;;25.30;58.90;;;;;;6219463;27;25912;-42
2022/08/01 08:48:14;;;;;;;0.20;0.10;;;25.40;58.90;;;;;;6225646;27;20456;-42
2022/08/01 08:51:21;;;;;;;0.57;0.20;;;25.30;58.80;;;;;;6231246;27;20047;-42
2022/08/01 08:54:25;;;;;;;0.30;0.10;;;25.20;58.70;;;;;;6207508;27;21525;-42
2022/08/01 08:57:33;;;;;;;0.17;0.10;;;25.40;58.70;;;;;;6235789;27;22062;-42
2022/08/01 09:00:35;;;;;;;0.50;0.10;;;25.30;58.70;;;;;;6257705;27;20157;-39
2022/08/01 09:03:37;;;;;;;0.40;0.20;;;25.30;58.60;;;;;;6271986;27;20081;-41
2022/08/01 09:06:39;;;;;;;0.20;0.10;;;25.30;58.60;;;;;;6244308;27;20111;-42
2022/08/01 09:09:42;;;;;;;0.25;0.10;;;25.30;58.60;;;;;;6228675;27;20810;-41
2022/08/01 09:13:10;;;;;;;0.17;0.10;;;25.30;58.60;;;;;;6249253;27;20071;-41
2022/08/01 09:16:17;;;;;;;0.20;0.20;;;25.40;58.50;;;;;;6225716;27;20116;-40
2022/08/01 09:19:20;;;;;;;0.30;0.10;;;25.30;59.00;;;;;;6203679;27;20047;-44
2022/08/01 09:22:41;;;;;;;0.20;0.10;;;25.30;58.40;;;;;;6207302;27;20073;-41
2022/08/01 09:25:52;;;;;;;0.20;0.20;;;25.30;58.50;;;;;;6206553;27;20035;-39
2022/08/01 09:28:59;;;;;;;2.17;0.20;;;25.40;59.00;;;;;;6224230;27;20046;-39
2022/08/01 09:32:05;;;;;;;1.00;0.10;;;25.40;58.30;;;;;;6255364;27;20043;-39
2022/08/01 09:35:23;;;;;;;0.10;0.10;;;25.40;58.30;;;;;;6219862;27;21018;-40
2022/08/01 09:38:26;;;;;;;0.38;0.10;;;25.40;58.20;;;;;;6193187;27;21580;-40
2022/08/01 09:41:31;;;;;;;0.10;0.10;;;25.40;58.20;;;;;;6261608;27;20093;-40
2022/08/01 09:44:43;;;;;;;0.30;0.20;;;25.40;58.10;;;;;;6229839;27;20180;-41
2022/08/01 09:47:56;;;;;;;0.20;0.10;;;25.40;58.00;;;;;;6214785;27;20051;-40
2022/08/01 09:50:59;;;;;;;0.47;0.20;;;25.50;58.10;;;;;;6241409;27;20617;-42
2022/08/01 09:54:08;;;;;;;0.55;0.30;;;25.40;57.80;;;;;;6202405;27;20039;-40
2022/08/01 09:57:15;;;;;;;0.30;0.20;;;25.40;57.80;;;;;;6226795;27;20043;-39
2022/08/01 10:00:18;;;;;;;0.63;0.20;;;25.40;57.70;;;;;;6220581;27;20046;-41
2022/08/01 10:03:39;;;;;;;0.20;0.20;;;25.40;57.70;;;;;;6207267;27;21376;-41
2022/08/01 10:06:43;;;;;;;0.10;0.10;;;25.40;57.60;;;;;;6216689;27;21339;-39
2022/08/01 10:09:46;;;;;;;0.20;0.20;;;25.40;57.60;;;;;;6237931;27;20053;-39
2022/08/01 10:12:51;;;;;;;0.20;0.10;;;25.30;57.50;;;;;;6226169;27;20120;-41
2022/08/01 10:15:54;;;;;;;0.40;0.10;;;25.40;57.60;;;;;;6214558;27;20243;-41
2022/08/01 10:19:00;;;;;;;0.30;0.22;;;25.40;57.50;;;;;;6202945;27;20035;-41
2022/08/01 10:22:08;;;;;;;0.28;0.20;;;25.40;57.40;;;;;;6224830;27;20039;-40
2022/08/01 10:25:14;;;;;;;0.30;0.20;;;25.40;57.40;;;;;;6206952;27;20084;-41
2022/08/01 10:28:18;;;;;;;0.35;0.10;;;25.40;57.40;;;;;;6248426;27;20068;-40
2022/08/01 10:31:25;;;;;;;0.30;0.30;;;25.30;57.30;;;;;;6247032;27;20115;-41
2022/08/01 10:34:33;;;;;;;0.30;0.28;;;25.30;57.20;;;;;;6252236;27;20056;-40
2022/08/01 10:37:35;;;;;;;0.20;0.20;;;25.40;57.30;;;;;;6246562;27;21073;-40
2022/08/01 10:40:57;;;;;;;0.30;0.10;;;25.30;57.20;;;;;;6260589;27;20162;-42
2022/08/01 10:44:01;;;;;;;0.10;0.10;;;25.40;57.60;;;;;;6255423;27;20054;-42
2022/08/01 10:47:06;;;;;;;0.20;0.20;;;25.40;57.20;;;;;;6265081;27;20097;-40
2022/08/01 10:50:17;;;;;;;0.32;0.30;;;25.30;57.00;;;;;;6195599;27;20520;-40
2022/08/01 10:53:27;;;;;;;0.85;0.20;;;25.40;57.00;;;;;;6272210;27;22356;-41
2022/08/01 10:56:40;;;;;;;0.10;0.10;;;25.30;56.90;;;;;;6252257;27;20103;-40
2022/08/01 10:59:53;;;;;;;0.28;0.20;;;25.30;56.90;;;;;;6283536;27;20158;-41
2022/08/01 11:03:03;;;;;;;0.20;0.20;;;25.40;56.90;;;;;;6285963;27;20126;-44
2022/08/01 11:06:06;;;;;;;0.20;0.20;;;25.30;56.90;;;;;;6249292;27;20058;-40
2022/08/01 11:09:24;;;;;;;0.20;0.20;;;25.30;56.80;;;;;;6227313;27;21387;-42
2022/08/01 11:12:40;;;;;;;0.40;0.20;;;25.30;56.80;;;;;;6245968;27;20053;-42
2022/08/01 11:15:42;;;;;;;0.30;0.30;;;25.40;56.90;;;;;;6266058;27;20039;-43
2022/08/01 11:18:52;;;;;;;0.40;0.30;;;25.40;56.80;;;;;;6282800;27;20113;-42
2022/08/01 11:22:03;;;;;;;0.35;0.30;;;25.40;56.80;;;;;;6279195;27;20043;-42
2022/08/01 11:25:05;;;;;;;0.73;0.40;;;25.30;56.70;;;;;;6243021;27;20050;-43
2022/08/01 11:28:19;;;;;;;0.38;0.20;;;25.30;56.70;;;;;;6262833;27;22790;-39
2022/08/01 11:31:34;;;;;;;0.40;0.40;;;25.40;56.80;;;;;;6243031;27;20194;-40
2022/08/01 11:34:53;;;;;;;0.30;0.20;;;25.30;56.60;;;;;;6248577;27;20051;-42
2022/08/01 11:37:56;;;;;;;0.30;0.30;;;25.50;56.80;;;;;;6262380;27;20055;-40
2022/08/01 11:41:10;;;;;;;0.38;0.28;;;25.40;56.70;;;;;;6285904;27;20071;-44
2022/08/01 11:44:14;;;;;;;0.30;0.25;;;25.40;56.70;;;;;;6214245;27;20050;-39
2022/08/01 11:47:17;;;;;;;0.38;0.30;;;25.40;56.70;;;;;;6253642;27;20047;-39
2022/08/01 11:50:31;;;;;;;0.47;0.30;;;25.40;56.70;;;;;;6250879;27;20058;-40
2022/08/01 11:53:33;;;;;;;0.40;0.30;;;25.30;56.60;;;;;;6249855;27;20051;-39
2022/08/01 11:56:34;;;;;;;0.43;0.40;;;25.40;56.80;;;;;;6218858;27;20097;-41
2022/08/01 11:59:47;;;;;;;0.30;0.30;;;25.30;56.70;;;;;;6243355;27;20068;-39
2022/08/01 12:03:14;;;;;;;0.20;0.20;;;25.50;56.80;;;;;;6202388;27;20054;-40
2022/08/01 12:06:34;;;;;;;;;;;25.30;56.70;;;;;;6210666;27;22498;-39
2022/08/01 12:09:36;;;;;;;0.55;0.50;;;25.40;56.70;;;;;;6214445;27;19927;-41
2022/08/01 12:12:44;;;;;;;0.40;0.30;;;25.50;56.80;;;;;;6246506;27;20157;-41
2022/08/01 12:15:46;;;;;;;0.40;0.22;;;25.40;56.70;;;;;;6227636;27;20114;-40
2022/08/01 12:18:50;;;;;;;0.30;0.30;;;25.30;56.60;;;;;;6240398;27;20059;-40
2022/08/01 12:22:10;;;;;;;0.75;0.47;;;25.40;56.70;;;;;;6264078;27;20053;-42
2022/08/01 12:25:14;;;;;;;0.40;0.30;;;25.30;56.60;;;;;;6232779;27;20150;-42
2022/08/01 12:28:17;;;;;;;0.45;0.30;;;25.40;56.70;;;;;;6240028;27;21291;-42
2022/08/01 12:31:31;;;;;;;0.30;0.30;;;25.30;56.60;;;;;;6260656;27;20046;-40
2022/08/01 12:34:34;;;;;;;0.30;0.30;;;25.40;56.70;;;;;;6227523;27;20050;-42
2022/08/01 12:37:37;;;;;;;0.38;0.30;;;25.40;56.70;;;;;;6254550;27;20046;-41
2022/08/01 12:40:43;;;;;;;0.50;0.40;;;25.30;56.60;;;;;;6195349;27;20056;-41
2022/08/01 12:43:48;;;;;;;0.60;0.40;;;25.30;56.60;;;;;;6203219;27;20047;-40
2022/08/01 12:46:49;;;;;;;0.52;0.40;;;25.40;56.70;;;;;;6234930;27;20043;-39
2022/08/01 12:49:52;;;;;;;0.30;0.30;;;25.30;56.50;;;;;;6265945;27;20042;-42
2022/08/01 12:52:53;;;;;;;0.40;0.40;;;25.30;57.20;;;;;;6247675;27;20049;-43
2022/08/01 12:55:56;;;;;;;0.35;0.30;;;25.40;56.60;;;;;;6268369;27;20049;-40
2022/08/01 12:59:02;;;;;;;1.10;0.60;;;25.40;56.70;;;;;;6229296;27;20059;-41
2022/08/01 13:02:08;;;;;;;0.60;0.20;;;25.40;56.70;;;;;;6224622;27;20049;-41
2022/08/01 13:05:12;;;;;;;0.57;0.50;;;25.30;56.60;;;;;;6223414;27;20051;-41
2022/08/01 13:08:16;;;;;;;0.63;0.40;;;25.40;56.70;;;;;;6248127;27;20169;-41
2022/08/01 13:11:18;;;;;;;0.20;0.20;;;25.30;56.60;;;;;;6240290;27;20119;-41
2022/08/01 13:14:28;;;;;;;0.63;0.30;;;25.40;56.70;;;;;;6255838;27;20593;-40
2022/08/01 13:17:31;;;;;;;0.30;0.30;;;25.30;56.70;;;;;;6238695;27;20134;-41
2022/08/01 13:20:35;;;;;;;0.43;0.40;;;25.40;56.80;;;;;;6271046;27;20096;-40
2022/08/01 13:23:37;;;;;;;0.40;0.40;;;25.40;56.80;;;;;;6260339;27;20039;-42
2022/08/01 13:27:03;;;;;;;0.47;0.45;;;25.30;56.80;;;;;;6215790;27;20079;-41
2022/08/01 13:30:13;;;;;;;0.30;0.30;;;25.40;56.90;;;;;;6228318;27;20046;-43
2022/08/01 13:33:15;;;;;;;0.47;0.30;;;25.40;57.00;;;;;;6245275;27;20045;-40
2022/08/01 13:36:19;;;;;;;0.65;0.43;;;25.40;56.90;;;;;;6244665;27;20089;-39
2022/08/01 13:42:49;;;;;;;0.22;0.22;;;25.20;56.90;;;;;;6250733;27;20042;-40
2022/08/01 13:45:50;;;;;;;0.75;0.40;;;25.40;57.10;;;;;;6234827;27;20054;-43
2022/08/01 13:48:52;;;;;;;0.40;0.30;;;25.40;57.10;;;;;;6261932;27;20423;-40
2022/08/01 13:51:55;;;;;;;0.30;0.30;;;25.40;57.10;;;;;;6264122;27;20039;-41
2022/08/01 13:54:57;;;;;;;0.40;0.30;;;25.40;57.10;;;;;;6246611;27;22350;-40
2022/08/01 13:57:59;;;;;;;0.55;0.30;;;25.40;57.10;;;;;;6261401;27;20051;-40
2022/08/01 14:01:01;;;;;;;0.30;0.30;;;25.40;57.10;;;;;;6257922;27;20161;-42
2022/08/01 14:04:06;;;;;;;0.30;0.30;;;25.40;57.20;;;;;;6201691;27;20162;-42
2022/08/01 14:07:08;;;;;;;0.40;0.40;;;25.40;57.20;;;;;;6248556;27;21942;-41
2022/08/01 14:10:15;;;;;;;0.70;0.28;;;25.30;57.10;;;;;;6255321;27;20173;-42
2022/08/01 14:13:21;;;;;;;0.35;0.30;;;25.40;57.20;;;;;;6244816;27;20130;-42
2022/08/01 14:16:25;;;;;;;0.40;0.40;;;25.30;57.10;;;;;;6252767;27;20074;-40
2022/08/01 14:19:27;;;;;;;0.32;0.30;;;25.40;57.20;;;;;;6263673;27;20042;-42
2022/08/01 14:22:41;;;;;;;0.38;0.38;;;25.40;57.20;;;;;;6252069;27;20038;-41
2022/08/01 14:25:43;;;;;;;0.55;0.45;;;25.40;57.30;;;;;;6202116;27;20042;-40
2022/08/01 14:29:05;;;;;;;0.32;0.30;;;25.40;57.30;;;;;;6205372;27;20065;-42
2022/08/01 14:32:06;;;;;;;0.40;0.40;;;25.40;57.30;;;;;;6244408;27;20054;-40
2022/08/01 14:35:09;;;;;;;0.20;0.20;;;25.50;57.40;;;;;;6222041;27;20114;-42
2022/08/01 14:38:11;;;;;;;0.32;0.30;;;25.30;57.20;;;;;;6242328;27;20031;-42
2022/08/01 14:41:22;;;;;;;0.38;0.35;;;25.40;57.30;;;;;;6236751;27;20066;-43
2022/08/01 14:44:24;;;;;;;0.30;0.30;;;25.30;57.20;;;;;;6212215;27;20047;-42
2022/08/01 14:47:29;;;;;;;0.30;0.30;;;25.40;57.30;;;;;;6240924;27;22144;-39
2022/08/01 14:50:30;;;;;;;0.35;0.30;;;25.30;57.20;;;;;;6240672;27;20039;-41
2022/08/01 14:53:34;;;;;;;0.40;0.30;;;25.40;57.40;;;;;;6244059;27;20042;-42
2022/08/01 14:56:37;;;;;;;0.40;0.30;;;25.40;57.30;;;;;;6245554;27;20086;-42
2022/08/01 14:59:38;;;;;;;0.43;0.40;;;25.30;57.20;;;;;;6238270;27;20482;-42
2022/08/01 15:02:40;;;;;;;0.30;0.30;;;25.40;57.20;;;;;;6235709;27;20652;-41
2022/08/01 15:05:42;;;;;;;0.40;0.30;;;25.40;57.30;;;;;;6227994;27;20122;-42
2022/08/01 15:08:44;;;;;;;1.48;0.35;;;25.40;57.20;;;;;;6247273;27;20081;-40
2022/08/01 15:11:46;;;;;;;0.35;0.30;;;25.40;57.20;;;;;;6259532;27;20119;-42
2022/08/01 15:14:48;;;;;;;0.38;0.38;;;25.30;57.10;;;;;;6219983;27;20039;-41
2022/08/01 15:17:51;;;;;;;0.30;0.25;;;25.40;57.20;;;;;;6232765;27;20047;-42
2022/08/01 15:20:52;;;;;;;0.40;0.28;;;25.30;57.10;;;;;;6252030;27;20057;-42
2022/08/01 15:23:55;;;;;;;0.30;0.30;;;25.40;57.20;;;;;;6241739;27;20915;-42
2022/08/01 15:26:56;;;;;;;0.28;0.28;;;25.40;57.20;;;;;;6246392;27;21298;-42
2022/08/01 15:29:58;;;;;;;0.30;0.30;;;25.40;57.10;;;;;;6265797;27;23045;-42
2022/08/01 15:32:59;;;;;;;0.57;0.30;;;25.50;57.10;;;;;;6264183;27;20046;-40
2022/08/01 15:36:01;;;;;;;0.40;0.40;;;25.50;57.10;;;;;;6264114;27;20061;-42
2022/08/01 15:39:03;;;;;;;0.40;0.30;;;25.50;57.00;;;;;;6267028;27;20303;-40
2022/08/01 15:42:08;;;;;;;0.20;0.20;;;25.40;56.90;;;;;;6264440;27;22024;-41
2022/08/01 15:45:12;;;;;;;0.30;0.30;;;25.40;56.80;;;;;;6257135;27;20039;-41
2022/08/01 15:48:34;;;;;;;0.47;0.40;;;25.40;56.90;;;;;;6250359;27;20205;-41
2022/08/01 15:51:41;;;;;;;0.30;0.20;;;25.40;56.80;;;;;;6255715;27;21338;-41
2022/08/01 15:54:43;;;;;;;0.20;0.20;;;25.40;56.90;;;;;;6259499;27;20306;-40
2022/08/01 15:57:45;;;;;;;0.45;0.30;;;25.30;56.80;;;;;;6258761;27;21095;-40
2022/08/01 16:00:46;;;;;;;0.20;0.20;;;25.40;56.80;;;;;;6246238;27;20696;-45
2022/08/01 16:03:48;;;;;;;0.20;0.20;;;25.50;56.90;;;;;;6255183;27;20326;-40
2022/08/01 16:06:50;;;;;;;0.32;0.32;;;25.40;56.80;;;;;;6272559;27;20407;-41
2022/08/01 16:09:52;;;;;;;0.20;0.20;;;25.30;56.70;;;;;;6269673;27;20388;-41
2022/08/01 16:12:53;;;;;;;0.35;0.35;;;25.40;56.70;;;;;;6294492;27;20213;-40